Time;durP1;ratioP1;P1;durP2;ratioP2;P2;SDS_P1;SDS_P2;PMS_P1;PMS_P2;Temp;Humidity;BMP_temperature;BMP_pressure;BME280_temperature;BME280_humidity;BME280_pressure;Samples;Min_cycle;Max_cycle;Signal;HPM_P1;HPM_P2
2022/04/12 00:00:17;;;;;;;12.35;5.45;;;;;;;5.27;75.57;98994.44;4987389;28;20037;-52
2022/04/12 00:02:42;;;;;;;9.00;5.38;;;;;;;5.31;73.64;98992.97;4993687;28;20034;-50
2022/04/12 00:05:09;;;;;;;11.05;5.20;;;;;;;5.34;74.25;98997.03;4987841;28;20030;-53
2022/04/12 00:07:35;;;;;;;8.55;5.13;;;;;;;5.29;75.16;99000.38;4990817;28;20030;-52
2022/04/12 00:10:01;;;;;;;10.43;5.28;;;;;;;5.22;74.59;98988.97;4993761;28;20049;-52
2022/04/12 00:12:26;;;;;;;8.00;5.13;;;;;;;5.53;77.00;98992.66;4994896;28;20026;-51
2022/04/12 00:14:51;;;;;;;8.48;5.40;;;;;;;5.73;72.50;98995.97;4995637;28;20038;-53
2022/04/12 00:20:03;;;;;;;8.45;5.28;;;;;;;5.63;72.88;99000.94;4991946;28;20620;-51
2022/04/12 00:22:28;;;;;;;8.65;5.18;;;;;;;5.56;75.33;98986.88;4992756;28;20042;-53
2022/04/12 00:24:54;;;;;;;9.23;5.88;;;;;;;5.36;75.08;98993.16;4991483;28;20494;-53
2022/04/12 00:27:20;;;;;;;11.27;6.25;;;;;;;5.44;75.08;98978.78;4989844;28;20382;-53
2022/04/12 00:29:45;;;;;;;11.85;5.68;;;;;;;5.68;74.00;98977.19;5001149;28;20125;-54
2022/04/12 00:32:10;;;;;;;12.07;5.07;;;;;;;5.67;73.67;98980.88;5000661;28;20416;-50
2022/04/12 00:34:36;;;;;;;9.25;4.82;;;;;;;5.95;73.97;98983.13;4996756;28;20034;-50
2022/04/12 00:37:01;;;;;;;8.80;5.10;;;;;;;5.79;73.62;98981.81;4998792;28;20540;-50
2022/04/12 00:39:27;;;;;;;7.72;5.03;;;;;;;5.65;76.38;98982.13;4994279;28;20022;-52
2022/04/12 00:41:52;;;;;;;9.80;5.65;;;;;;;5.48;74.82;98979.19;4995123;28;20046;-49
2022/04/12 00:44:17;;;;;;;9.68;5.03;;;;;;;5.31;75.54;98971.72;4999187;28;20034;-54
2022/04/12 00:46:43;;;;;;;12.05;5.82;;;;;;;5.20;76.89;98977.72;5000390;28;20034;-52
2022/04/12 00:49:08;;;;;;;13.48;5.57;;;;;;;5.11;76.59;98971.03;4994897;28;20060;-51
2022/04/12 00:51:34;;;;;;;10.48;5.55;;;;;;;5.21;76.47;98968.72;4990899;28;20034;-51
2022/04/12 00:54:00;;;;;;;9.18;5.75;;;;;;;5.26;77.05;98971.53;4982350;28;20875;-50
2022/04/12 00:56:26;;;;;;;11.13;6.05;;;;;;;5.13;76.86;98972.44;4989939;28;20034;-50
2022/04/12 00:58:51;;;;;;;10.20;6.15;;;;;;;5.07;76.89;98968.00;4994164;28;20034;-53
2022/04/12 01:01:16;;;;;;;8.98;5.65;;;;;;;4.97;77.56;98971.09;4994683;28;20045;-50
2022/04/12 01:03:42;;;;;;;11.20;5.75;;;;;;;4.91;77.89;98960.50;4993592;28;20034;-49
2022/04/12 01:06:07;;;;;;;10.38;5.97;;;;;;;4.79;78.19;98968.31;4990248;28;20384;-52
2022/04/12 01:08:34;;;;;;;8.98;5.85;;;;;;;4.66;78.99;98974.50;4998753;28;20034;-50
2022/04/12 01:11:04;;;;;;;10.05;6.10;;;;;;;4.67;79.71;98967.38;4994344;28;20085;-50
2022/04/12 01:13:29;;;;;;;15.50;6.53;;;;;;;4.75;78.36;98961.81;4997396;28;20034;-50
2022/04/12 01:15:55;;;;;;;10.18;6.07;;;;;;;4.84;77.37;98949.94;4994491;28;20061;-51
2022/04/12 01:18:20;;;;;;;10.43;6.28;;;;;;;5.21;76.08;98960.75;4997384;28;20500;-49
2022/04/12 01:20:45;;;;;;;11.02;6.18;;;;;;;5.24;76.99;98963.00;4991523;28;20038;-51
2022/04/12 01:23:27;;;;;;;10.90;6.20;;;;;;;5.49;76.58;98959.53;4996246;28;20029;-50
2022/04/12 01:25:53;;;;;;;9.95;5.93;;;;;;;5.26;75.93;98960.91;4994526;28;20073;-51
2022/04/12 01:28:18;;;;;;;13.27;6.25;;;;;;;4.92;77.29;98959.50;4993369;28;20551;-50
2022/04/12 01:30:43;;;;;;;11.07;6.95;;;;;;;4.56;78.76;98962.69;4992909;28;20481;-51
2022/04/12 01:33:09;;;;;;;10.27;6.47;;;;;;;4.49;78.76;98952.94;4991142;28;20030;-51
2022/04/12 01:35:35;;;;;;;12.57;6.50;;;;;;;4.70;77.62;98954.47;4966101;28;20448;-53
2022/04/12 01:38:01;;;;;;;10.20;6.10;;;;;;;5.06;75.90;98952.25;4993718;28;20117;-51
2022/04/12 01:40:26;;;;;;;10.80;6.45;;;;;;;5.24;74.90;98955.03;4998029;28;20480;-53
2022/04/12 01:42:55;;;;;;;12.13;6.88;;;;;;;5.05;75.33;98955.94;4995498;28;20388;-54
2022/04/12 01:45:21;;;;;;;17.10;9.20;;;;;;;4.49;78.53;98946.78;4995186;28;20048;-50
2022/04/12 01:47:46;;;;;;;12.52;7.70;;;;;;;4.49;83.53;98944.97;4999549;28;20044;-50
2022/04/12 01:50:12;;;;;;;14.30;7.40;;;;;;;4.41;80.33;98941.72;4994200;28;20027;-55
2022/04/12 01:52:37;;;;;;;11.13;6.80;;;;;;;4.45;81.25;98941.09;4996678;28;20056;-50
2022/04/12 01:55:03;;;;;;;11.63;6.85;;;;;;;4.76;81.11;98943.00;4990360;28;20041;-51
2022/04/12 01:57:29;;;;;;;12.18;7.07;;;;;;;4.68;78.98;98934.47;4994072;28;20021;-51
2022/04/12 01:59:56;;;;;;;12.55;7.30;;;;;;;4.86;79.43;98926.63;4997100;28;20023;-54
2022/04/12 02:02:22;;;;;;;10.60;6.50;;;;;;;4.82;80.49;98933.41;4996983;28;20073;-50
2022/04/12 02:04:47;;;;;;;13.90;7.97;;;;;;;4.60;79.39;98942.69;4998437;28;20053;-52
2022/04/12 02:07:12;;;;;;;12.90;7.90;;;;;;;4.44;79.67;98946.59;4992805;28;20046;-52
2022/04/12 02:09:38;;;;;;;19.50;11.07;;;;;;;4.22;81.20;98946.06;4989075;28;20034;-51
2022/04/12 02:12:04;;;;;;;22.55;11.75;;;;;;;4.07;82.14;98943.66;4989315;28;20050;-52
2022/04/12 02:14:29;;;;;;;15.60;8.80;;;;;;;4.11;83.10;98931.59;4993861;28;20480;-53
2022/04/12 02:16:55;;;;;;;16.20;9.68;;;;;;;4.13;82.19;98934.06;4993327;28;20034;-53
2022/04/12 02:19:20;;;;;;;18.17;8.20;;;;;;;4.22;82.03;98935.44;4993322;28;20033;-51
2022/04/12 02:21:45;;;;;;;14.15;7.90;;;;;;;4.25;81.93;98927.09;5001009;28;20492;-50
2022/04/12 02:24:11;;;;;;;19.33;9.40;;;;;;;4.38;81.95;98927.03;4973141;28;20093;-50
2022/04/12 02:26:36;;;;;;;15.95;8.77;;;;;;;4.34;81.77;98933.78;4992952;28;20046;-51
2022/04/12 02:29:01;;;;;;;13.98;8.25;;;;;;;4.30;81.97;98932.59;4993330;28;20042;-50
2022/04/12 02:31:27;;;;;;;13.93;8.45;;;;;;;4.57;81.58;98927.16;4998262;28;20042;-51
2022/04/12 02:33:52;;;;;;;16.17;8.52;;;;;;;4.50;81.82;98933.31;4994873;28;20037;-53
2022/04/12 02:36:18;;;;;;;16.05;8.82;;;;;;;4.45;80.89;98933.13;4994535;28;20042;-52
2022/04/12 02:38:43;;;;;;;17.80;8.93;;;;;;;4.41;82.25;98933.75;4988287;28;20096;-50
2022/04/12 02:41:10;;;;;;;17.17;9.52;;;;;;;4.40;81.96;98922.34;4988846;28;20077;-50
2022/04/12 02:43:35;;;;;;;13.70;8.07;;;;;;;4.41;81.94;98926.63;4994773;28;20042;-52
2022/04/12 02:46:01;;;;;;;14.05;8.05;;;;;;;4.49;82.57;98931.72;4995347;28;20046;-51
2022/04/12 02:48:27;;;;;;;17.02;8.95;;;;;;;4.60;80.54;98926.75;4993077;28;20038;-52
2022/04/12 02:50:53;;;;;;;18.40;11.05;;;;;;;4.49;80.33;98926.41;4988164;28;20051;-50
2022/04/12 02:53:18;;;;;;;16.67;8.68;;;;;;;4.42;81.03;98928.25;5003955;28;20030;-56
2022/04/12 02:55:44;;;;;;;15.73;8.50;;;;;;;4.47;81.89;98923.13;4989150;28;20054;-51
2022/04/12 02:58:09;;;;;;;19.08;9.57;;;;;;;4.29;84.08;98926.47;4994396;28;20065;-50
2022/04/12 03:00:34;;;;;;;18.08;9.32;;;;;;;4.20;83.25;98921.59;4995680;28;20030;-52
2022/04/12 03:03:00;;;;;;;17.58;8.85;;;;;;;4.18;85.13;98918.34;4993513;28;20042;-50
2022/04/12 03:05:25;;;;;;;16.75;9.45;;;;;;;4.35;86.10;98919.50;4989195;28;20046;-53
2022/04/12 03:07:51;;;;;;;18.80;10.23;;;;;;;4.29;82.75;98917.66;4992610;28;20038;-52
2022/04/12 03:10:16;;;;;;;20.20;9.98;;;;;;;4.45;83.74;98919.06;4988792;28;20037;-50
2022/04/12 03:12:41;;;;;;;19.95;9.80;;;;;;;4.56;83.07;98914.94;4992154;28;20026;-51
2022/04/12 03:15:08;;;;;;;15.07;9.00;;;;;;;4.74;81.01;98909.72;5000069;28;20030;-53
2022/04/12 03:17:34;;;;;;;15.98;7.55;;;;;;;5.93;75.67;98904.56;4993147;28;20037;-53
2022/04/12 03:19:59;;;;;;;10.48;6.05;;;;;;;6.29;73.70;98916.28;4992779;28;20027;-50
2022/04/12 03:22:25;;;;;;;19.95;9.73;;;;;;;5.47;76.50;98921.75;4988614;28;20042;-52
2022/04/12 03:24:53;;;;;;;19.42;10.32;;;;;;;5.05;78.68;98913.44;4989250;28;20117;-50
2022/04/12 03:27:18;;;;;;;18.98;10.95;;;;;;;4.84;79.79;98907.44;4988596;28;20046;-53
2022/04/12 03:29:43;;;;;;;15.93;9.93;;;;;;;4.72;80.69;98906.50;4985472;28;20049;-53
2022/04/12 03:32:09;;;;;;;23.05;11.25;;;;;;;4.53;81.84;98911.66;4993298;28;20042;-51
2022/04/12 03:34:36;;;;;;;23.25;11.90;;;;;;;4.53;81.54;98922.28;5000564;28;20404;-51
2022/04/12 03:37:01;;;;;;;19.58;11.30;;;;;;;4.54;81.71;98929.25;4997758;28;20103;-51
2022/04/12 03:39:26;;;;;;;19.13;11.10;;;;;;;4.45;82.09;98935.00;4995028;28;20029;-53
2022/04/12 03:41:52;;;;;;;20.30;11.07;;;;;;;4.39;82.19;98925.19;4988341;28;20432;-51
2022/04/12 03:44:17;;;;;;;27.40;12.70;;;;;;;4.30;83.35;98925.44;4986722;28;20096;-54
2022/04/12 03:46:43;;;;;;;18.25;8.20;;;;;;;4.37;82.37;98928.06;4998637;28;20121;-52
2022/04/12 03:49:10;;;;;;;20.45;12.10;;;;;;;4.32;83.24;98930.53;4996517;28;20041;-50
2022/04/12 03:51:36;;;;;;;25.95;14.90;;;;;;;4.18;83.76;98928.94;4991645;28;20477;-52
2022/04/12 03:54:02;;;;;;;31.15;16.02;;;;;;;4.10;84.03;98922.84;4993343;28;20035;-50
2022/04/12 03:56:28;;;;;;;28.10;14.00;;;;;;;4.24;84.30;98922.78;4988567;28;20104;-53
2022/04/12 03:58:53;;;;;;;34.03;15.23;;;;;;;4.18;83.90;98918.34;4993721;28;21820;-51
2022/04/12 04:01:19;;;;;;;21.10;12.02;;;;;;;4.35;84.47;98908.09;4987134;28;20342;-51
2022/04/12 04:03:44;;;;;;;17.08;9.82;;;;;;;4.36;84.00;98904.38;4992843;28;20034;-53
2022/04/12 04:06:11;;;;;;;20.58;10.25;;;;;;;4.44;83.79;98902.34;4995798;28;20038;-54
2022/04/12 04:08:36;;;;;;;12.27;8.07;;;;;;;4.61;85.02;98907.16;4995383;28;20473;-50
2022/04/12 04:11:02;;;;;;;17.58;10.18;;;;;;;4.54;84.18;98908.00;4990984;28;20062;-52
2022/04/12 04:13:35;;;;;;;14.50;8.65;;;;;;;4.47;84.72;98909.88;4995316;28;20026;-53
2022/04/12 04:16:01;;;;;;;19.88;9.88;;;;;;;4.48;84.05;98903.53;4991331;28;20468;-50
2022/04/12 04:18:27;;;;;;;16.73;9.85;;;;;;;4.43;83.86;98906.00;4991456;28;20026;-54
2022/04/12 04:20:52;;;;;;;20.27;9.98;;;;;;;4.64;83.49;98896.09;4988235;28;20046;-52
2022/04/12 04:23:17;;;;;;;19.60;10.55;;;;;;;4.49;82.29;98912.28;4988700;28;20037;-53
2022/04/12 04:25:43;;;;;;;23.65;9.88;;;;;;;4.44;83.28;98905.00;4994156;28;20042;-51
2022/04/12 04:28:11;;;;;;;17.85;10.25;;;;;;;4.30;84.40;98900.75;4987632;28;20412;-53
2022/04/12 04:30:38;;;;;;;16.95;9.38;;;;;;;4.42;83.88;98908.84;4989488;28;20096;-53
2022/04/12 04:33:05;;;;;;;17.45;8.65;;;;;;;4.64;83.34;98906.72;4996236;28;20121;-53
2022/04/12 04:35:31;;;;;;;17.75;10.25;;;;;;;4.63;83.91;98910.41;4987554;28;20396;-51
2022/04/12 04:37:56;;;;;;;21.63;10.63;;;;;;;4.28;83.21;98908.09;4990604;28;20042;-51
2022/04/12 04:40:22;;;;;;;17.80;9.60;;;;;;;4.15;84.62;98910.78;4986668;28;20042;-51
2022/04/12 04:42:49;;;;;;;18.90;10.40;;;;;;;4.19;85.86;98914.66;4988318;28;20469;-53
2022/04/12 04:45:15;;;;;;;22.38;10.68;;;;;;;4.27;84.46;98923.22;4988356;28;20034;-55
2022/04/12 04:47:51;;;;;;;16.33;9.32;;;;;;;4.25;82.68;98924.44;5001271;28;20034;-49
2022/04/12 04:50:17;;;;;;;17.50;8.95;;;;;;;4.29;84.88;98934.44;4992951;28;20366;-51
2022/04/12 04:52:43;;;;;;;19.20;10.02;;;;;;;4.20;83.73;98932.22;4995834;28;20454;-50
2022/04/12 04:55:09;;;;;;;21.55;9.15;;;;;;;4.27;83.49;98935.66;4987580;28;20034;-51
2022/04/12 04:57:41;;;;;;;18.25;9.38;;;;;;;4.11;83.46;98943.03;4999578;28;20080;-51
2022/04/12 05:00:07;;;;;;;18.00;10.10;;;;;;;3.94;85.14;98938.38;5000381;28;20042;-50
2022/04/12 05:02:33;;;;;;;18.67;9.63;;;;;;;4.18;85.19;98945.66;4995176;28;20092;-50
2022/04/12 05:04:59;;;;;;;19.13;9.30;;;;;;;4.27;82.65;98943.63;4998345;28;20037;-52
2022/04/12 05:07:25;;;;;;;19.15;8.50;;;;;;;4.41;81.27;98939.88;5000350;28;20038;-52
2022/04/12 05:09:54;;;;;;;15.73;9.05;;;;;;;4.56;80.50;98941.47;4990995;28;20609;-53
2022/04/12 05:12:20;;;;;;;12.93;8.23;;;;;;;4.81;79.94;98938.91;4998042;28;20140;-50
2022/04/12 05:14:45;;;;;;;18.52;8.65;;;;;;;4.89;81.11;98931.53;4994476;28;20030;-53
2022/04/12 05:17:10;;;;;;;14.07;8.23;;;;;;;5.25;78.25;98935.38;4993947;28;20046;-51
2022/04/12 05:19:36;;;;;;;14.90;8.40;;;;;;;5.42;79.46;98933.03;4991031;28;20046;-50
2022/04/12 05:22:01;;;;;;;18.02;9.23;;;;;;;5.45;76.67;98929.94;4990850;28;20519;-50
2022/04/12 05:24:27;;;;;;;16.92;9.10;;;;;;;5.72;76.33;98930.53;4999076;28;20037;-51
2022/04/12 05:26:52;;;;;;;14.25;8.52;;;;;;;5.56;76.40;98925.75;4994171;28;20157;-50
2022/04/12 05:29:17;;;;;;;20.25;10.10;;;;;;;5.61;76.73;98928.56;4996096;28;20492;-52
2022/04/12 05:31:43;;;;;;;18.75;9.32;;;;;;;4.89;79.46;98920.06;4993861;28;20034;-51
2022/04/12 05:34:08;;;;;;;17.55;9.32;;;;;;;5.30;78.59;98919.59;5000561;28;20039;-52
2022/04/12 05:36:34;;;;;;;21.90;9.02;;;;;;;6.11;78.40;98936.50;5001138;28;20183;-50
2022/04/12 05:38:59;;;;;;;18.02;9.93;;;;;;;5.29;77.70;98931.28;4991724;28;20034;-52
2022/04/12 05:41:24;;;;;;;21.35;11.73;;;;;;;6.51;77.44;98932.59;4992106;28;20403;-53
2022/04/12 05:43:50;;;;;;;17.13;10.13;;;;;;;6.85;71.97;98931.16;4989127;28;20030;-51
2022/04/12 05:46:15;;;;;;;19.10;10.43;;;;;;;6.95;72.53;98939.44;4998852;28;20057;-51
2022/04/12 05:48:41;;;;;;;20.38;10.10;;;;;;;7.25;70.75;98950.06;4994562;28;20038;-53
2022/04/12 05:51:06;;;;;;;20.13;9.93;;;;;;;9.60;64.41;98953.41;5004463;28;20049;-52
2022/04/12 05:53:32;;;;;;;22.00;10.85;;;;;;;10.47;59.55;98952.84;4993681;28;20156;-54
2022/04/12 05:55:57;;;;;;;19.45;10.23;;;;;;;11.75;56.50;98951.50;4989658;28;20046;-53
2022/04/12 05:58:24;;;;;;;23.67;11.13;;;;;;;12.94;51.86;98951.91;4990292;28;20147;-52
2022/04/12 06:00:50;;;;;;;19.17;10.57;;;;;;;13.43;49.62;98953.38;4993491;28;20084;-52
2022/04/12 06:03:15;;;;;;;23.45;12.27;;;;;;;14.19;48.17;98957.91;4989008;28;20108;-51
2022/04/12 06:05:40;;;;;;;24.60;13.15;;;;;;;13.49;49.37;98967.66;4991903;28;20045;-50
2022/04/12 06:08:07;;;;;;;20.17;11.93;;;;;;;12.84;51.27;98961.81;4998971;28;20038;-50
2022/04/12 06:10:33;;;;;;;27.95;12.48;;;;;;;13.35;50.09;98956.59;5003109;28;20393;-51
2022/04/12 06:12:59;;;;;;;24.65;12.23;;;;;;;13.85;47.96;98949.59;5000455;28;20062;-52
2022/04/12 06:15:24;;;;;;;22.45;11.60;;;;;;;14.16;47.17;98957.66;4994111;28;20117;-53
2022/04/12 06:17:50;;;;;;;25.83;12.93;;;;;;;13.86;47.91;98951.25;4992648;28;20027;-53
2022/04/12 06:20:16;;;;;;;23.95;11.05;;;;;;;14.72;46.06;98954.81;4975678;28;20038;-53
2022/04/12 06:22:42;;;;;;;24.08;11.43;;;;;;;14.07;47.22;98956.59;4994888;28;20030;-53
2022/04/12 06:25:08;;;;;;;19.77;11.80;;;;;;;12.98;49.58;98954.88;4988907;28;20088;-52
2022/04/12 06:27:35;;;;;;;25.23;13.20;;;;;;;12.32;51.99;98965.34;4990203;28;20049;-53
2022/04/12 06:30:14;;;;;;;20.17;12.05;;;;;;;12.88;51.14;98970.97;4993371;28;20046;-53
2022/04/12 06:32:39;;;;;;;21.73;11.80;;;;;;;14.16;48.34;98976.53;5004912;28;20052;-51
2022/04/12 06:35:06;;;;;;;17.75;10.70;;;;;;;12.74;52.10;98976.84;5003494;28;20025;-49
2022/04/12 06:37:31;;;;;;;20.63;10.52;;;;;;;13.79;50.30;98977.63;5001190;28;20030;-52
2022/04/12 06:39:57;;;;;;;14.45;9.02;;;;;;;14.18;48.82;98972.50;5002009;28;20100;-50
2022/04/12 06:42:23;;;;;;;19.20;10.10;;;;;;;13.07;51.34;98976.69;5003887;28;20445;-51
2022/04/12 06:44:48;;;;;;;22.70;10.10;;;;;;;12.03;55.11;98979.13;5003800;28;20378;-50
2022/04/12 06:47:15;;;;;;;17.83;9.73;;;;;;;12.10;54.46;98985.06;4999046;28;20525;-52
2022/04/12 06:49:45;;;;;;;17.13;9.30;;;;;;;13.29;51.37;98985.38;4998411;28;20022;-50
2022/04/12 06:52:11;;;;;;;23.90;9.30;;;;;;;13.69;50.76;98985.72;4990486;28;20053;-53
2022/04/12 06:54:36;;;;;;;18.17;8.90;;;;;;;14.86;49.05;98974.72;4992380;28;20477;-52
2022/04/12 06:57:02;;;;;;;15.57;8.43;;;;;;;15.15;47.17;98973.22;4978471;28;20052;-53
2022/04/12 06:59:28;;;;;;;12.30;8.00;;;;;;;14.36;48.90;98975.69;4996552;28;20128;-53
2022/04/12 07:01:54;;;;;;;16.05;8.35;;;;;;;14.89;48.65;98974.19;4995124;28;20042;-54
2022/04/12 07:04:19;;;;;;;21.25;8.55;;;;;;;15.51;46.58;98974.63;5002439;28;20037;-51
2022/04/12 07:06:45;;;;;;;13.95;8.57;;;;;;;15.08;47.91;98981.66;4993199;28;20041;-54
2022/04/12 07:09:17;;;;;;;12.20;8.15;;;;;;;15.03;48.59;98982.50;4975701;28;20072;-53
2022/04/12 07:11:42;;;;;;;14.75;7.53;;;;;;;14.44;49.60;98984.00;4989529;28;20417;-53
2022/04/12 07:14:07;;;;;;;16.20;8.65;;;;;;;14.13;50.70;98982.47;4994619;28;20022;-52
2022/04/12 07:16:33;;;;;;;14.43;8.32;;;;;;;15.27;48.80;98987.22;4996573;28;20038;-51
2022/04/12 07:18:58;;;;;;;11.40;7.78;;;;;;;15.97;47.01;98992.41;4998934;28;20033;-53
2022/04/12 07:21:24;;;;;;;12.88;7.93;;;;;;;16.10;47.67;98997.19;4992234;28;20184;-53
2022/04/12 07:23:50;;;;;;;13.90;7.57;;;;;;;16.41;45.77;99002.28;4994820;28;20032;-50
2022/04/12 07:26:16;;;;;;;13.00;7.90;;;;;;;16.26;46.75;98994.31;4991301;28;20061;-53
2022/04/12 07:28:42;;;;;;;17.33;8.48;;;;;;;15.76;48.40;98982.88;4991392;28;20061;-52
2022/04/12 07:31:07;;;;;;;15.85;8.13;;;;;;;15.21;48.56;98981.03;4992293;28;20370;-53
2022/04/12 07:33:32;;;;;;;13.18;7.93;;;;;;;14.63;51.09;98980.78;4993266;28;20030;-50
2022/04/12 07:35:58;;;;;;;12.55;7.93;;;;;;;15.03;50.26;98979.78;4999176;28;20068;-50
2022/04/12 07:38:23;;;;;;;15.40;7.50;;;;;;;15.55;47.95;98983.00;4995543;28;20022;-53
2022/04/12 07:40:49;;;;;;;14.95;7.22;;;;;;;14.61;49.08;98983.72;4990370;28;20038;-52
2022/04/12 07:43:15;;;;;;;14.63;7.90;;;;;;;14.91;49.73;98976.59;4992834;28;20105;-53
2022/04/12 07:45:40;;;;;;;11.88;7.97;;;;;;;15.18;49.44;98981.59;4998160;28;20428;-52
2022/04/12 07:48:06;;;;;;;17.75;7.63;;;;;;;15.22;48.57;98979.13;4996377;28;20030;-52
2022/04/12 07:50:32;;;;;;;15.48;7.25;;;;;;;16.70;45.91;98988.72;4997308;28;20046;-53
2022/04/12 07:52:57;;;;;;;14.75;7.65;;;;;;;17.89;42.97;98981.38;4998913;28;20033;-53
2022/04/12 07:55:23;;;;;;;13.30;6.35;;;;;;;17.92;41.13;98973.78;4991363;28;20065;-52
2022/04/12 07:57:48;;;;;;;14.63;7.35;;;;;;;17.06;42.42;98973.97;4991980;28;20038;-54
2022/04/12 08:00:14;;;;;;;12.20;7.60;;;;;;;17.08;42.18;98977.19;4992126;28;20022;-51
2022/04/12 08:02:39;;;;;;;19.00;8.88;;;;;;;16.98;43.11;98965.38;4993261;28;20030;-53
2022/04/12 08:05:05;;;;;;;13.60;8.30;;;;;;;16.67;43.83;98966.81;4988110;28;20035;-53
2022/04/12 08:07:30;;;;;;;16.05;8.32;;;;;;;15.93;45.46;98969.75;4988088;28;20030;-53
2022/04/12 08:09:55;;;;;;;15.80;8.57;;;;;;;15.69;46.61;98970.47;4988632;28;20022;-52
2022/04/12 08:12:21;;;;;;;12.43;7.55;;;;;;;17.01;45.20;98978.34;4993442;28;20499;-51
2022/04/12 08:14:47;;;;;;;14.65;8.00;;;;;;;17.63;43.81;98967.44;4993707;28;20118;-53
2022/04/12 08:17:12;;;;;;;19.45;8.68;;;;;;;15.81;47.25;98964.72;4993701;28;20047;-52
2022/04/12 08:19:38;;;;;;;17.38;7.63;;;;;;;16.08;47.83;98958.81;4991980;28;20469;-51
2022/04/12 08:22:03;;;;;;;14.80;8.57;;;;;;;16.32;46.65;98950.69;4991441;28;20053;-52
2022/04/12 08:24:29;;;;;;;19.45;7.88;;;;;;;16.78;45.66;98952.91;4988439;28;20048;-51
2022/04/12 08:26:54;;;;;;;16.80;7.70;;;;;;;17.84;44.20;98948.94;4973687;28;20042;-52
2022/04/12 08:29:20;;;;;;;14.10;7.72;;;;;;;17.68;42.72;98953.78;4989016;28;20074;-53
2022/04/12 08:31:45;;;;;;;14.50;7.88;;;;;;;17.60;44.20;98942.84;5002065;28;20481;-53
2022/04/12 08:34:10;;;;;;;16.67;7.90;;;;;;;17.58;42.64;98947.75;4997468;28;20019;-53
2022/04/12 08:36:36;;;;;;;17.58;7.72;;;;;;;17.61;43.36;98941.72;5001801;28;20048;-53
2022/04/12 08:39:02;;;;;;;12.85;7.90;;;;;;;17.74;44.67;98943.66;4994778;28;20069;-53
2022/04/12 08:41:27;;;;;;;17.05;8.18;;;;;;;17.76;43.90;98949.59;4998119;28;20034;-55
2022/04/12 08:43:55;;;;;;;14.40;7.40;;;;;;;18.46;42.56;98945.13;4984265;28;20026;-55
2022/04/12 08:46:20;;;;;;;14.07;7.53;;;;;;;18.14;42.50;98938.66;4990446;28;20035;-52
2022/04/12 08:48:46;;;;;;;10.40;6.47;;;;;;;16.36;42.95;98929.31;4994186;28;20548;-53
2022/04/12 08:51:11;;;;;;;13.18;6.55;;;;;;;17.17;42.22;98942.91;4989972;28;20054;-53
2022/04/12 08:53:37;;;;;;;13.85;6.13;;;;;;;16.28;43.64;98938.06;4994911;28;20030;-53
2022/04/12 08:56:02;;;;;;;8.90;5.70;;;;;;;16.70;43.52;98933.75;4991490;28;20054;-53
2022/04/12 08:58:28;;;;;;;9.75;5.95;;;;;;;15.43;45.96;98944.72;4996495;28;20038;-51
2022/04/12 09:00:53;;;;;;;11.43;6.10;;;;;;;16.45;44.15;98943.00;4996711;28;20049;-54
2022/04/12 09:03:19;;;;;;;9.90;5.65;;;;;;;16.63;44.93;98938.75;4991400;28;20050;-55
2022/04/12 09:05:44;;;;;;;13.55;6.03;;;;;;;18.39;40.92;98933.88;4993007;28;20712;-51
2022/04/12 09:08:23;;;;;;;12.25;5.97;;;;;;;16.66;43.64;98927.34;4998096;28;20018;-54
2022/04/12 09:10:55;;;;;;;9.85;6.13;;;;;;;17.33;43.10;98919.94;4997831;28;20467;-52
2022/04/12 09:13:20;;;;;;;11.25;6.40;;;;;;;16.46;42.41;98918.38;4998678;28;20030;-51
2022/04/12 09:15:45;;;;;;;13.07;6.82;;;;;;;17.31;42.26;98922.13;4999735;28;20101;-54
2022/04/12 09:18:11;;;;;;;13.73;6.22;;;;;;;17.50;41.75;98916.72;4997751;28;20393;-53
2022/04/12 09:20:36;;;;;;;11.18;6.22;;;;;;;17.92;41.88;98914.13;4990976;28;20461;-54
2022/04/12 09:23:02;;;;;;;13.15;6.32;;;;;;;17.01;42.50;98904.44;4964426;28;20069;-53
2022/04/12 09:25:27;;;;;;;11.23;6.13;;;;;;;16.43;44.64;98915.44;5002865;28;20066;-55
2022/04/12 09:27:55;;;;;;;11.35;6.90;;;;;;;17.31;43.58;98905.09;4999147;28;20026;-53
2022/04/12 09:30:21;;;;;;;13.38;6.30;;;;;;;17.52;42.45;98902.84;4992485;28;20514;-52
2022/04/12 09:32:47;;;;;;;13.57;6.85;;;;;;;17.13;43.17;98898.59;5000343;28;20021;-55
2022/04/12 09:35:12;;;;;;;12.02;6.00;;;;;;;18.73;39.92;98904.41;4991557;28;20045;-51
2022/04/12 09:37:45;;;;;;;9.85;6.07;;;;;;;17.99;41.94;98892.84;4990672;28;20034;-54
2022/04/12 09:40:17;;;;;;;12.35;6.53;;;;;;;18.32;41.35;98891.69;4991767;28;20026;-53
2022/04/12 09:42:52;;;;;;;12.68;5.97;;;;;;;17.62;40.79;98884.53;4997067;28;20535;-51
2022/04/12 09:45:28;;;;;;;11.55;6.07;;;;;;;18.41;40.17;98888.25;4988324;28;20046;-51
2022/04/12 09:47:55;;;;;;;11.70;6.18;;;;;;;19.45;38.59;98883.78;4991035;28;20030;-53
2022/04/12 09:50:27;;;;;;;10.45;6.05;;;;;;;19.40;37.94;98887.44;4994426;28;20049;-50
2022/04/12 09:52:52;;;;;;;9.85;5.68;;;;;;;19.35;38.02;98881.34;5025547;28;20590;-52
2022/04/12 09:55:36;;;;;;;9.82;5.32;;;;;;;19.17;37.53;98886.63;4994761;28;20532;-54
2022/04/12 09:58:02;;;;;;;10.93;5.32;;;;;;;18.16;38.47;98887.66;4989689;28;20026;-51
2022/04/12 10:00:31;;;;;;;9.98;5.50;;;;;;;19.26;37.90;98880.47;4989195;28;20049;-52
2022/04/12 10:03:03;;;;;;;12.02;5.40;;;;;;;19.20;36.41;98881.69;4996156;28;20061;-52
2022/04/12 10:05:28;;;;;;;11.82;6.05;;;;;;;18.96;36.00;98871.91;4994868;28;20034;-54
2022/04/12 10:07:56;;;;;;;12.32;5.40;;;;;;;17.95;37.81;98872.88;4999041;28;20456;-54
2022/04/12 10:10:23;;;;;;;14.25;5.40;;;;;;;18.78;36.38;98875.59;4998990;28;20148;-53
2022/04/12 10:12:48;;;;;;;10.35;5.63;;;;;;;19.38;36.97;98869.84;4988508;28;20037;-50
2022/04/12 10:15:14;;;;;;;11.68;5.40;;;;;;;19.43;36.66;98880.59;4992441;28;20029;-51
2022/04/12 10:17:39;;;;;;;10.73;5.07;;;;;;;19.04;36.89;98870.38;4990065;28;20389;-54
2022/04/12 10:20:06;;;;;;;14.05;5.30;;;;;;;19.19;36.22;98870.00;4992391;28;20426;-54
2022/04/12 10:22:31;;;;;;;8.10;4.80;;;;;;;19.37;35.97;98873.69;4972651;28;20018;-53
2022/04/12 10:24:56;;;;;;;12.30;5.50;;;;;;;19.80;35.91;98868.53;4993291;28;20030;-53
2022/04/12 10:27:22;;;;;;;9.13;5.43;;;;;;;19.39;36.69;98863.28;4987684;28;20038;-52
2022/04/12 10:30:15;;;;;;;9.55;5.05;;;;;;;19.52;36.58;98859.72;4988966;28;20042;-53
2022/04/12 10:33:00;;;;;;;9.73;5.00;;;;;;;19.86;35.91;98855.59;4993165;28;20057;-54
2022/04/12 10:35:46;;;;;;;13.88;6.10;;;;;;;20.09;36.33;98853.59;4993585;28;20106;-51
2022/04/12 10:38:12;;;;;;;8.10;4.30;;;;;;;19.49;38.38;98854.88;4999541;28;20120;-55
2022/04/12 10:40:54;;;;;;;6.75;4.13;;;;;;;20.09;36.94;98852.81;4993289;28;20133;-52
2022/04/12 10:43:29;;;;;;;9.40;4.45;;;;;;;19.98;37.14;98847.66;4994239;28;20061;-52
2022/04/12 10:45:55;;;;;;;7.22;4.05;;;;;;;19.50;37.31;98845.63;4993641;28;20479;-53
2022/04/12 10:48:26;;;;;;;7.93;3.72;;;;;;;20.72;35.07;98832.50;4996737;28;20216;-51
2022/04/12 10:50:53;;;;;;;8.13;3.50;;;;;;;20.73;36.29;98836.03;4998390;28;20501;-53
2022/04/12 10:53:42;;;;;;;7.78;3.80;;;;;;;20.90;37.20;98830.59;4990200;28;20038;-52
2022/04/12 10:56:17;;;;;;;6.68;2.50;;;;;;;21.41;35.92;98828.94;4987416;28;20049;-50
2022/04/12 10:58:43;;;;;;;6.85;2.72;;;;;;;21.68;35.55;98816.84;4986876;28;20022;-53
2022/04/12 11:01:26;;;;;;;9.15;2.60;;;;;;;21.02;36.65;98821.78;4995904;28;20049;-54
2022/04/12 11:03:52;;;;;;;3.70;2.28;;;;;;;22.12;35.34;98812.03;4986550;28;20449;-59
2022/04/12 11:06:27;;;;;;;6.03;2.58;;;;;;;22.03;36.74;98810.47;4992650;28;20392;-54
2022/04/12 11:09:14;;;;;;;8.05;2.53;;;;;;;21.72;36.47;98809.63;4984524;28;20030;-55
2022/04/12 11:11:44;;;;;;;3.88;2.00;;;;;;;20.46;36.25;98818.81;4986105;28;20071;-54
2022/04/12 11:14:28;;;;;;;;;;;;;;;20.21;36.49;98806.75;4987415;28;20113;-50
2022/04/12 11:17:06;;;;;;;5.53;2.42;;;;;;;20.80;35.45;98807.19;4994855;28;20375;-51
2022/04/12 11:19:45;;;;;;;5.13;2.25;;;;;;;20.60;36.07;98805.91;4992890;28;20042;-53
2022/04/12 11:22:12;;;;;;;4.82;2.40;;;;;;;20.38;36.60;98806.00;4993322;28;20489;-50
2022/04/12 11:24:38;;;;;;;4.32;2.45;;;;;;;20.79;35.85;98799.34;4988375;28;20126;-53
2022/04/12 11:27:04;;;;;;;8.30;2.35;;;;;;;20.51;36.61;98794.16;4991487;28;20042;-53
2022/04/12 11:29:30;;;;;;;5.63;2.53;;;;;;;20.68;34.92;98793.41;4990245;28;20128;-53